Monday, November 20, 2017, 2:01 PM EST
Back to Local

KHEF, Manassas, Manassas Regional Airport/harry P. Davis Field

Location: Manassas, VA, United States Lat: 38.717
Local Time: 2:01 PM EST (19:01 GMT) Lon: -77.517
Time Zone: US/Eastern Elev: 193 ft

Show me the last for .
Show Decoded

2017-11-20 12:56 METAR KHEF 201756Z 26010KT 10SM CLR 10/M06 A3019 RMK AO2 SLP235 6//// T01001056
                 10100 21028 58013 PNO $ =
2017-11-20 11:56 METAR KHEF 201656Z 23011G14KT 10SM CLR 09/M05 A3021 RMK AO2 SLP242 T00891050 PNO
                 $ =
2017-11-20 10:56 METAR KHEF 201556Z 21007KT 190V250 10SM CLR 07/M04 A3022 RMK AO2 SLP247
                 T00721044 PNO $ =
2017-11-20 09:56 METAR KHEF 201456Z 24003KT 10SM CLR 06/M06 A3023 RMK AO2 SLP247 6//// T00561056
                 51021 PNO $ =
2017-11-20 08:56 METAR KHEF 201356Z 32003KT 10SM 04/M06 A3021 RMK AO2 SLP242 T00441056 PNO $ =
2017-11-20 07:56 METAR KHEF 201256Z 00000KT 10SM CLR 00/M04 A3020 RMK AO2 SLP240 T00001039 FZRANO
                 PNO $ =
2017-11-20 06:56 METAR KHEF 201156Z 36003KT 10SM CLR 01/M06 A3016 RMK AO2 SLP226 6//// 7////
                 T00111061 10061 20000 51028 FZRANO PNO $ =
2017-11-20 05:56 METAR KHEF 201056Z AUTO 30004KT 10SM CLR 01/M06 A3014 RMK AO2 SLP218 T00111061
                 FZRANO PNO $ =
2017-11-20 04:56 METAR KHEF 200956Z AUTO 30007KT 10SM CLR 02/M06 A3011 RMK AO2 SLP207 T00171056
                 FZRANO PNO $ =
2017-11-20 03:56 METAR KHEF 200856Z AUTO 32005KT 10SM FEW050 02/M06 A3008 RMK AO2 SLP197 6////
                 T00221056 51023 FZRANO PNO $ =
2017-11-20 02:56 METAR KHEF 200756Z AUTO 31008KT 10SM BKN055 04/M06 A3007 RMK AO2 SLP196
                 T00441056 PNO $ =
2017-11-20 01:56 METAR KHEF 200656Z AUTO 30011G22KT 10SM FEW055 05/M06 A3005 RMK AO2 PK WND
                 31026/0638 SLP188 T00501061 PNO $ =
2017-11-20 00:56 METAR KHEF 200556Z AUTO 30006KT 10SM OVC055 06/M03 A3001 RMK AO2 SLP175 6////
                 T00611033 10072 20061 53021 PNO $ =
2017-11-19 23:56 METAR KHEF 200456Z AUTO 30010KT 10SM FEW060 06/M04 A2998 RMK AO2 SLP166
                 T00611044 PNO $ =
2017-11-19 22:56 METAR KHEF 200356Z AUTO 30007KT 10SM OVC060 07/M03 A2997 RMK AO2 SLP162
                 T00671028 401720056 PNO $ =
2017-11-19 21:56 METAR KHEF 200256Z 32010KT 10SM OVC065 07/M03 A2995 RMK AO2 SLP153 6////
                 T00671028 53016 PNO $ =
2017-11-19 20:56 METAR KHEF 200156Z 31010KT 10SM BKN065 07/M03 A2994 RMK AO2 SLP149 T00671028 PNO
                 $ =
2017-11-19 19:56 METAR KHEF 200056Z 28009G18KT 10SM SCT065 06/M03 A2991 RMK AO2 SLP140 T00611033
                 PNO $ =
2017-11-19 18:56 METAR KHEF 192356Z 30006KT 10SM SCT070 06/M03 A2990 RMK AO2 SLP137 6////
                 T00561033 10117 20056 51026 PNO $ =
2017-11-19 17:56 METAR KHEF 192256Z 30006KT 10SM OVC070 07/M04 A2987 RMK AO2 SLP128 T00721039 PNO
                 $ =
2017-11-19 16:56 METAR KHEF 192156Z 31008KT 10SM BKN070 07/M04 A2985 RMK AO2 PK WND 29027/2107
                 SLP122 T00721039 PNO $ =
2017-11-19 15:56 METAR KHEF 192056Z 29015G25KT 10SM OVC065 08/M03 A2982 RMK AO2 PK WND 30027/2008
                 SLP111 6//// T00831033 53020 PNO $ =
2017-11-19 14:56 METAR KHEF 191956Z 32016G26KT 10SM BKN060 10/M03 A2979 RMK AO2 PK WND 29031/1920
                 SLP101 T01001028 PNO $ =

Support USWX by starting your Amazon purchase here.